This is the latest recevied weather packets stored in our database for station/object F6BIJ-13. If no packets are shown the sender has not sent any weather packets the latest 10 day(s).
| Time | Temp. | Humidity | Pressure | Rain* | Wind** | Luminosity | Snow |
|---|---|---|---|---|---|---|---|
| 1777768598 | 13.89° C | 68% | 1018.8 hPa | 0 mm | - | - | - |
| 1777766797 | 15.56° C | 62% | 1019.1 hPa | 0 mm | - | - | - |
| 1777766077 | 15.56° C | 54% | 1019.2 hPa | 0 mm | - | - | - |
| 1777764997 | 15° C | 54% | 1019.2 hPa | 0 mm | - | - | - |
| 1777764637 | 15.56° C | 54% | 1019.3 hPa | 0 mm | - | - | - |
| 1777761397 | 15.56° C | 62% | 1019.2 hPa | 0 mm | - | - | - |
| 1777761037 | 15.56° C | 60% | 1019.2 hPa | 0 mm | - | - | - |
| 1777760677 | 15.56° C | 60% | 1019.2 hPa | 0 mm | - | - | - |
| 1777760317 | 15° C | 61% | 1019.3 hPa | 0 mm | - | - | - |
| 1777759597 | 15.56° C | 59% | 1019.3 hPa | 0 mm | - | - | - |
| 1777759237 | 15.56° C | 60% | 1019.4 hPa | 0 mm | - | - | - |
| 1777758877 | 15.56° C | 59% | 1019.5 hPa | 0 mm | - | - | - |
| 1777758516 | 15.56° C | 57% | 1019.4 hPa | 0 mm | - | - | - |
| 1777757797 | 16.11° C | 58% | 1019.4 hPa | 0 mm | - | - | - |
| 1777757437 | 16.11° C | 58% | 1019.3 hPa | 0 mm | - | - | - |
| 1777757076 | 16.11° C | 58% | 1019.3 hPa | 0 mm | - | - | - |
| 1777756717 | 16.11° C | 58% | 1019.3 hPa | 0 mm | - | - | - |
| 1777755997 | 16.11° C | 58% | 1019.3 hPa | 0 mm | - | - | - |
| 1777755637 | 16.67° C | 57% | 1019.4 hPa | 0 mm | - | - | - |
| 1777755277 | 15.56° C | 57% | 1019.3 hPa | 0 mm | - | - | - |
| 1777754917 | 16.67° C | 56% | 1019.2 hPa | 0 mm | - | - | - |
| 1777754197 | 16.67° C | 59% | 1019.2 hPa | 0 mm | - | - | - |
| 1777752037 | 17.78° C | 54% | 1019.3 hPa | 0 mm | - | - | - |
| 1777751676 | 17.78° C | 53% | 1019.3 hPa | 0 mm | - | - | - |
| 1777750597 | 17.78° C | 52% | 1019.4 hPa | 0 mm | - | - | - |
* Rain latest 24 hours (hover to see other rain measurements)
** Current wind speed in m/s (hover to see current wind gust speed)